KIYA

Abbeville Chris Crusta Memorial Airport

Abbeville, Louisiana, USA
METAR KIYA 201555Z AUTO 25008KT 10SM SCT028 BKN038 BKN050 31/26 A3005 RMK AO2 T03100259
Observed Flight Rules
Aug-20 @ 15:55 UTC (30 minutes ago) Visual Flight Rules
Wind Visibility Clouds
250° at 8 knots 10 miles
  • Scattered at 2,800' AGL
  • Broken at 3,800' AGL
  • Broken at 5,000' AGL
Temperatures Readings
Current 31°C / 88°F
Dewpoint 26°C / 79°F
Humidity 75%
Altimeter 30.05" Hg
Pressure 1018 hPa
Elevation 5
METAR KIYA 201555Z AUTO 25008KT 10SM SCT028 BKN038 BKN050 31/26 A3005 RMK AO2 T03100259
Observed Flight Rules
Aug-20 @ 15:55 UTC
(30 minutes ago)
VFR
Wind Visibility
250° at 8 knots 10 miles
Clouds
  • Scattered at 2,800' AGL
  • Broken at 3,800' AGL
  • Broken at 5,000' AGL
Temperature Dewpoint
31°C / 88°F 26°C / 79°F
Humidity Altimeter Pressure
75% 30.05" Hg 1018 hPa